Osprey 1 — CFG7757 — position and weather

sailwx.info

Track history (hours):
 
Tides and Currents Weather Stations Pressure Air Temp Water Temp Dewpoint Dewpoint Depression Visibility Wind Speed Wind Dir Waves Ship Positions

Osprey 1

Last reported at 2018-Jun-25 12:00 UTC. Time now 2018-Jun-25 12:01 UTC.
Position N 50°20' W 125°26'.

Length 57 m; draft 5.5 m.

Type: Fishing. MMSI: 316005998.

Date/timePositionNaut miles runAvg speedWind from/ knotsBaromVisibWave heightAir tempDewpointWater temp
2018-Jun-25 12:00N 50°20' W 125°26'713.8
2018-Jun-25 11:30N 50°13' W 125°23'612.6
2018-Jun-25 11:00N 50°07' W 125°20'611.4
2018-Jun-25 10:31N 50°03' W 125°14'611.2
2018-Jun-25 10:01N 49°58' W 125°09'612.2
2018-Jun-25 09:30N 49°54' W 125°02'612.6
2018-Jun-25 09:01N 49°50' W 124°55'612.7
2018-Jun-25 08:30N 49°46' W 124°47'612.6
2018-Jun-25 08:00N 49°42' W 124°40'612.8
2018-Jun-25 07:31N 49°38' W 124°32'612.7
2018-Jun-25 07:00N 49°35' W 124°23'1112.3
2018-Jun-25 06:05N 49°29' W 124°08'312.1
2018-Jun-25 05:51N 49°27' W 124°04'2412.2
2018-Jun-25 03:50N 49°20' W 123°29'411.2
2018-Jun-25 03:30N 49°19' W 123°23'612.0
2018-Jun-25 03:00N 49°19' W 123°14'611.5
2018-Jun-25 02:30N 49°18' W 123°06'1 2.9
2018-Jun-25 02:00N 49°17' W 123°03'0 0.0
2018-Jun-25 01:31N 49°17' W 123°03'0 0.0
2018-Jun-25 01:00N 49°17' W 123°03'0 0.0
2018-Jun-25 00:30N 49°17' W 123°03'0 0.0
2018-Jun-25 00:00N 49°17' W 123°03'0 0.0
2018-Jun-24 23:30N 49°17' W 123°03'0 0.0
2018-Jun-24 23:00N 49°17' W 123°03'0 0.0
2018-Jun-24 22:30N 49°17' W 123°03'0 0.0
2018-Jun-24 22:00N 49°17' W 123°03'0 0.0
2018-Jun-24 21:28N 49°17' W 123°03'0 0.0
2018-Jun-24 21:00N 49°17' W 123°03'0 0.0
2018-Jun-24 20:30N 49°17' W 123°03'0 0.0
2018-Jun-24 20:01N 49°17' W 123°03'0 0.0
2018-Jun-24 19:30N 49°17' W 123°03'0 0.0
2018-Jun-24 19:00N 49°17' W 123°03'0 0.0
2018-Jun-24 18:30N 49°17' W 123°03'0 0.0
2018-Jun-24 18:00N 49°17' W 123°03'0 0.0
2018-Jun-24 17:30N 49°17' W 123°03'0 0.0
2018-Jun-24 17:01N 49°17' W 123°03'0 0.0
2018-Jun-24 16:30N 49°17' W 123°03'0 0.0
2018-Jun-24 16:00N 49°17' W 123°03'0 0.0
2018-Jun-24 15:30N 49°17' W 123°03'0 0.0
2018-Jun-24 15:00N 49°17' W 123°03'0 0.0
2018-Jun-24 14:31N 49°17' W 123°03'0 0.0
2018-Jun-24 14:00N 49°17' W 123°03'0 0.0
2018-Jun-24 13:29N 49°17' W 123°03'0 0.0
2018-Jun-24 13:00N 49°17' W 123°03'0 0.0
2018-Jun-24 12:31N 49°17' W 123°03'0 0.0
2018-Jun-24 12:00N 49°17' W 123°03'0 0.0
2018-Jun-24 11:31N 49°17' W 123°03'3 6.5
2018-Jun-24 11:00N 49°19' W 123°08'5 9.8
2018-Jun-24 10:27N 49°18' W 123°16'511.5
2018-Jun-24 10:00N 49°13' W 123°19'612.2
2018-Jun-24 09:30N 49°07' W 123°21'612.6
2018-Jun-24 09:00N 49°01' W 123°21'712.7
2018-Jun-24 08:28N 48°54' W 123°17'510.3
2018-Jun-24 07:58N 48°50' W 123°21'612.1
2018-Jun-24 07:30N 48°45' W 123°17'612.7
2018-Jun-24 07:00N 48°39' W 123°14'612.6
2018-Jun-24 06:30N 48°32' W 123°12'612.6
2018-Jun-24 06:00N 48°26' W 123°10'613.0
2018-Jun-24 05:30N 48°22' W 123°18'2012.7
2018-Jun-24 03:58N 48°19' W 123°47'612.4
2018-Jun-24 03:29N 48°21' W 123°55'611.8
2018-Jun-24 03:00N 48°23' W 124°03'611.5
2018-Jun-24 02:30N 48°25' W 124°11'612.5
2018-Jun-24 02:00N 48°28' W 124°20'612.2
2018-Jun-24 01:30N 48°30' W 124°28'5 9.6
2018-Jun-24 01:01N 48°32' W 124°35'612.3
2018-Jun-24 00:31N 48°34' W 124°44'612.5
2018-Jun-24 00:00N 48°37' W 124°52'612.6
2018-Jun-23 23:30N 48°40' W 125°00'712.9
2018-Jun-23 22:59N 48°43' W 125°09'612.9
2018-Jun-23 22:30N 48°46' W 125°18'713.3
2018-Jun-23 22:01N 48°49' W 125°26'713.7
2018-Jun-23 21:30N 48°53' W 125°35'713.5
2018-Jun-23 21:00N 48°57' W 125°44'713.4
2018-Jun-23 20:31N 49°00' W 125°52'713.2
2018-Jun-23 20:00N 49°04' W 126°01'  
2018-Jun-21 14:26N 49°49' W 127°46'5 1.6
2018-Jun-21 11:26N 49°46' W 127°40'7 3.1
2018-Jun-21 09:06N 49°52' W 127°45'1 2.4
2018-Jun-21 08:49N 49°52' W 127°44'1 1.4
2018-Jun-21 08:26N 49°52' W 127°44'2 2.8
2018-Jun-21 07:42N 49°50' W 127°43'4 3.1
2018-Jun-21 06:31N 49°47' W 127°40'1 0.7
2018-Jun-21 04:38N 49°47' W 127°42'0 3.2
2018-Jun-21 04:30N 49°47' W 127°42'2 0.3
2018-Jun-20 19:56N 49°45' W 127°42'1 0.4
2018-Jun-20 18:39N 49°44' W 127°42'2 1.1
2018-Jun-20 16:29N 49°47' W 127°41'14 0.7
2018-Jun-19 20:44N 49°38' W 127°24'6 2.2
2018-Jun-19 18:01N 49°42' W 127°32'1 7.5
2018-Jun-19 17:55N 49°42' W 127°33'3 7.4
2018-Jun-19 17:28N 49°40' W 127°28'3 5.9
2018-Jun-19 16:55N 49°38' W 127°25'2 0.5
2018-Jun-19 11:45N 49°39' W 127°28'5 2.8
2018-Jun-19 09:58N 49°42' W 127°34'5 3.0
2018-Jun-19 08:11N 49°46' W 127°40'1 2.6
2018-Jun-19 07:59N 49°45' W 127°40'4 2.2
2018-Jun-19 06:15N 49°43' W 127°35'1 3.0
2018-Jun-19 05:56N 49°42' W 127°34'2 3.0
2018-Jun-19 05:10N 49°41' W 127°32'3 1.2
2018-Jun-19 02:36N 49°42' W 127°37'3 1.8
2018-Jun-19 00:55N 49°41' W 127°32'4 7.0
2018-Jun-19 00:24N 49°43' W 127°36'2 4.5
2018-Jun-19 00:00N 49°44' W 127°38'2 3.2
2018-Jun-18 23:29N 49°46' W 127°39'1 2.9
2018-Jun-18 23:00N 49°47' W 127°40'2 3.2
2018-Jun-18 22:24N 49°49' W 127°41'1 1.0
2018-Jun-18 21:52N 49°49' W 127°42'2 6.1
2018-Jun-18 21:28N 49°47' W 127°41'3 5.7
2018-Jun-18 21:00N 49°45' W 127°38'5 9.4
2018-Jun-18 20:28N 49°44' W 127°31'4 8.6
2018-Jun-18 19:59N 49°41' W 127°26'5 3.3
2018-Jun-18 18:32N 49°36' W 127°25'4 0.6
2018-Jun-18 12:31N 49°40' W 127°25'1 5.9
2018-Jun-18 12:20N 49°39' W 127°24'2 5.1
2018-Jun-18 11:57N 49°37' W 127°23'1 0.5
2018-Jun-18 10:55N 49°37' W 127°24'2 3.0
2018-Jun-18 10:26N 49°39' W 127°24'5 1.0
2018-Jun-18 05:50N 49°34' W 127°22'4 8.4
2018-Jun-18 05:23N 49°33' W 127°16'410.7
2018-Jun-18 05:00N 49°29' W 127°14'510.9
2018-Jun-18 04:31N 49°24' W 127°17'510.5
2018-Jun-18 04:01N 49°20' W 127°12'510.2
2018-Jun-18 03:30N 49°16' W 127°06'5 9.5
2018-Jun-18 03:00N 49°12' W 127°03'1 2.4
2018-Jun-18 02:30N 49°13' W 127°04'1 3.0
2018-Jun-18 02:01N 49°14' W 127°05'1 2.7
2018-Jun-18 01:31N 49°15' W 127°07'1 2.8
2018-Jun-18 01:00N 49°16' W 127°08'2 3.5
2018-Jun-18 00:31N 49°17' W 127°10'4 8.0
2018-Jun-18 00:01N 49°15' W 127°06'510.4
2018-Jun-17 23:31N 49°11' W 127°01'611.5
2018-Jun-17 23:01N 49°06' W 126°55'510.3
2018-Jun-17 22:31N 49°02' W 126°52'5 9.9
2018-Jun-17 22:01N 49°00' W 126°45'5 9.7
2018-Jun-17 21:29N 48°58' W 126°38'4 8.8
2018-Jun-17 21:00N 48°55' W 126°32'0 0.4
2018-Jun-17 20:30N 48°55' W 126°33'1 1.2
2018-Jun-17 20:00N 48°56' W 126°32'1 2.6
2018-Jun-17 19:31N 48°55' W 126°32'1 1.4
2018-Jun-17 19:00N 48°54' W 126°32'1 2.7
2018-Jun-17 18:30N 48°53' W 126°33'4 8.6
2018-Jun-17 18:00N 48°48' W 126°33'4 8.7
2018-Jun-17 17:30N 48°45' W 126°28'510.1
2018-Jun-17 17:00N 48°46' W 126°20'3 6.1
2018-Jun-17 16:30N 48°44' W 126°16'3 5.8
2018-Jun-17 16:01N 48°41' W 126°17'510.7
2018-Jun-17 15:31N 48°36' W 126°13'2 4.6
2018-Jun-17 15:00N 48°34' W 126°12'1 2.4
2018-Jun-17 14:31N 48°33' W 126°11'1 2.9
2018-Jun-17 14:00N 48°32' W 126°11'2 2.8
2018-Jun-17 13:23N 48°30' W 126°11'1 2.7
2018-Jun-17 13:00N 48°29' W 126°11'1 2.8
2018-Jun-17 12:29N 48°28' W 126°10'1 2.7
2018-Jun-17 11:59N 48°26' W 126°08'1 2.9
2018-Jun-17 11:30N 48°25' W 126°07'1 3.0
2018-Jun-17 11:01N 48°24' W 126°06'1 2.6
2018-Jun-17 10:30N 48°25' W 126°07'2 3.3
2018-Jun-17 10:00N 48°27' W 126°08'2 3.0
2018-Jun-17 09:30N 48°28' W 126°09'2 3.2
2018-Jun-17 09:00N 48°29' W 126°10'2 4.2
2018-Jun-17 08:30N 48°32' W 126°10'1 2.7
2018-Jun-17 08:00N 48°30' W 126°11'1 2.3
2018-Jun-17 07:30N 48°29' W 126°11'1 2.9
2018-Jun-17 07:01N 48°28' W 126°10'1 2.5
2018-Jun-17 06:31N 48°29' W 126°11'2 3.8
2018-Jun-17 06:00N 48°31' W 126°11'1 2.0
2018-Jun-17 05:30N 48°30' W 126°11'1 1.5
2018-Jun-17 05:00N 48°29' W 126°11'1 2.8
2018-Jun-17 04:30N 48°28' W 126°10'1 2.9
2018-Jun-17 04:01N 48°27' W 126°09'1 2.8
2018-Jun-17 03:30N 48°25' W 126°09'1 2.8
2018-Jun-17 03:00N 48°24' W 126°08'1 2.7
2018-Jun-17 02:31N 48°23' W 126°06'1 2.9
2018-Jun-17 02:00N 48°22' W 126°05'0 0.3
2018-Jun-17 01:31N 48°22' W 126°05'510.6
2018-Jun-17 01:01N 48°19' W 125°58'611.9
2018-Jun-17 00:30N 48°16' W 125°51'511.0
2018-Jun-17 00:01N 48°15' W 125°42'4 7.0
2018-Jun-16 23:31N 48°14' W 125°47'612.9
2018-Jun-16 23:01N 48°17' W 125°55'611.3
2018-Jun-16 22:30N 48°22' W 125°60'5 9.7
2018-Jun-16 22:00N 48°22' W 126°07'3 5.6
2018-Jun-16 21:30N 48°24' W 126°09'1 1.6
2018-Jun-16 21:00N 48°24' W 126°08'1 2.9
2018-Jun-16 20:30N 48°23' W 126°07'1 2.8
2018-Jun-16 20:00N 48°22' W 126°06'1 2.9
2018-Jun-16 19:30N 48°21' W 126°04'2 3.2
2018-Jun-16 19:00N 48°20' W 126°02'3 6.6
2018-Jun-16 18:30N 48°22' W 126°06'3 6.2
2018-Jun-16 18:00N 48°24' W 126°08'1 1.2
2018-Jun-16 17:30N 48°24' W 126°09'1 2.7
2018-Jun-16 17:00N 48°23' W 126°08'1 2.6
2018-Jun-16 16:30N 48°22' W 126°06'1 2.9
2018-Jun-16 16:00N 48°21' W 126°04'0 0.6
2018-Jun-16 15:30N 48°21' W 126°04'510.4
2018-Jun-16 15:00N 48°25' W 126°09'2 4.6
2018-Jun-16 14:30N 48°27' W 126°08'1 2.3
2018-Jun-16 14:00N 48°26' W 126°09'1 2.3
2018-Jun-16 13:30N 48°25' W 126°08'1 2.7
2018-Jun-16 13:00N 48°24' W 126°07'1 2.8
2018-Jun-16 12:28N 48°23' W 126°06'2 3.5
2018-Jun-16 12:00N 48°22' W 126°04'1 1.9
2018-Jun-16 11:27N 48°23' W 126°05'2 2.2
2018-Jun-16 10:40N 48°25' W 126°06'1 2.5
2018-Jun-16 10:27N 48°24' W 126°06'4 6.7
2018-Jun-16 09:50N 48°21' W 126°03'1 1.9
2018-Jun-16 09:28N 48°20' W 126°02'1 2.8
2018-Jun-16 08:59N 48°19' W 126°00'3 2.6
2018-Jun-16 07:58N 48°19' W 125°56'2 3.0
2018-Jun-16 07:24N 48°20' W 125°54'9 1.8
2018-Jun-16 02:27N 48°15' W 125°43'0 0.9
2018-Jun-16 02:00N 48°15' W 125°42'1 2.0
2018-Jun-16 01:25N 48°15' W 125°41'0 0.5
2018-Jun-16 00:53N 48°15' W 125°41'4 9.9
2018-Jun-16 00:26N 48°18' W 125°36'511.2
2018-Jun-16 00:00N 48°20' W 125°30'711.9
2018-Jun-15 23:27N 48°25' W 125°23'4 9.4
2018-Jun-15 23:00N 48°25' W 125°16'611.5
2018-Jun-15 22:28N 48°27' W 125°08'611.5
2018-Jun-15 21:56N 48°30' W 124°60'511.8
2018-Jun-15 21:30N 48°31' W 124°52'612.2
2018-Jun-15 21:00N 48°30' W 124°43'612.1
2018-Jun-15 20:30N 48°29' W 124°34'612.1
2018-Jun-15 20:00N 48°27' W 124°26'613.1
2018-Jun-15 19:31N 48°25' W 124°16'714.0
2018-Jun-15 19:00N 48°23' W 124°06'3013.3
2018-Jun-15 16:45N 48°22' W 123°21'414.2
2018-Jun-15 16:30N 48°23' W 123°16'714.0
2018-Jun-15 16:00N 48°30' W 123°13'816.4
2018-Jun-15 15:30N 48°38' W 123°15'714.9
2018-Jun-15 15:00N 48°45' W 123°19'811.9
2018-Jun-15 14:22N 48°53' W 123°18'513.5
2018-Jun-15 14:00N 48°58' W 123°19'612.7
2018-Jun-15 13:30N 49°04' W 123°21'613.0
2018-Jun-15 13:00N 49°10' W 123°22'613.1
2018-Jun-15 12:30N 49°17' W 123°20'611.9
2018-Jun-15 12:00N 49°19' W 123°12'  
Track history (hours):
 
Tides and Currents Weather Stations Pressure Air Temp Water Temp Dewpoint Dewpoint Depression Visibility Wind Speed Wind Dir Waves Ship Positions

Osprey 1

Last reported at 2018-Jun-25 12:00 UTC. Time now 2018-Jun-25 12:01 UTC.
Position N 50°20' W 125°26'.

Length 57 m; draft 5.5 m.

Type: Fishing. MMSI: 316005998.

Date/timePositionNaut miles runAvg speedWind from/ knotsBaromVisibWave heightAir tempDewpointWater temp
2018-Jun-25 12:00N 50°20' W 125°26'713.8
2018-Jun-25 11:30N 50°13' W 125°23'612.6
2018-Jun-25 11:00N 50°07' W 125°20'611.4
2018-Jun-25 10:31N 50°03' W 125°14'611.2
2018-Jun-25 10:01N 49°58' W 125°09'612.2
2018-Jun-25 09:30N 49°54' W 125°02'612.6
2018-Jun-25 09:01N 49°50' W 124°55'612.7
2018-Jun-25 08:30N 49°46' W 124°47'612.6
2018-Jun-25 08:00N 49°42' W 124°40'612.8
2018-Jun-25 07:31N 49°38' W 124°32'612.7
2018-Jun-25 07:00N 49°35' W 124°23'1112.3
2018-Jun-25 06:05N 49°29' W 124°08'312.1
2018-Jun-25 05:51N 49°27' W 124°04'2412.2
2018-Jun-25 03:50N 49°20' W 123°29'411.2
2018-Jun-25 03:30N 49°19' W 123°23'612.0
2018-Jun-25 03:00N 49°19' W 123°14'611.5
2018-Jun-25 02:30N 49°18' W 123°06'1 2.9
2018-Jun-25 02:00N 49°17' W 123°03'0 0.0
2018-Jun-25 01:31N 49°17' W 123°03'0 0.0
2018-Jun-25 01:00N 49°17' W 123°03'0 0.0
2018-Jun-25 00:30N 49°17' W 123°03'0 0.0
2018-Jun-25 00:00N 49°17' W 123°03'0 0.0
2018-Jun-24 23:30N 49°17' W 123°03'0 0.0
2018-Jun-24 23:00N 49°17' W 123°03'0 0.0
2018-Jun-24 22:30N 49°17' W 123°03'0 0.0
2018-Jun-24 22:00N 49°17' W 123°03'0 0.0
2018-Jun-24 21:28N 49°17' W 123°03'0 0.0
2018-Jun-24 21:00N 49°17' W 123°03'0 0.0
2018-Jun-24 20:30N 49°17' W 123°03'0 0.0
2018-Jun-24 20:01N 49°17' W 123°03'0 0.0
2018-Jun-24 19:30N 49°17' W 123°03'0 0.0
2018-Jun-24 19:00N 49°17' W 123°03'0 0.0
2018-Jun-24 18:30N 49°17' W 123°03'0 0.0
2018-Jun-24 18:00N 49°17' W 123°03'0 0.0
2018-Jun-24 17:30N 49°17' W 123°03'0 0.0
2018-Jun-24 17:01N 49°17' W 123°03'0 0.0
2018-Jun-24 16:30N 49°17' W 123°03'0 0.0
2018-Jun-24 16:00N 49°17' W 123°03'0 0.0
2018-Jun-24 15:30N 49°17' W 123°03'0 0.0
2018-Jun-24 15:00N 49°17' W 123°03'0 0.0
2018-Jun-24 14:31N 49°17' W 123°03'0 0.0
2018-Jun-24 14:00N 49°17' W 123°03'0 0.0
2018-Jun-24 13:29N 49°17' W 123°03'0 0.0
2018-Jun-24 13:00N 49°17' W 123°03'0 0.0
2018-Jun-24 12:31N 49°17' W 123°03'0 0.0
2018-Jun-24 12:00N 49°17' W 123°03'0 0.0
2018-Jun-24 11:31N 49°17' W 123°03'3 6.5
2018-Jun-24 11:00N 49°19' W 123°08'5 9.8
2018-Jun-24 10:27N 49°18' W 123°16'511.5
2018-Jun-24 10:00N 49°13' W 123°19'612.2
2018-Jun-24 09:30N 49°07' W 123°21'612.6
2018-Jun-24 09:00N 49°01' W 123°21'712.7
2018-Jun-24 08:28N 48°54' W 123°17'510.3
2018-Jun-24 07:58N 48°50' W 123°21'612.1
2018-Jun-24 07:30N 48°45' W 123°17'612.7
2018-Jun-24 07:00N 48°39' W 123°14'612.6
2018-Jun-24 06:30N 48°32' W 123°12'612.6
2018-Jun-24 06:00N 48°26' W 123°10'613.0
2018-Jun-24 05:30N 48°22' W 123°18'2012.7
2018-Jun-24 03:58N 48°19' W 123°47'612.4
2018-Jun-24 03:29N 48°21' W 123°55'611.8
2018-Jun-24 03:00N 48°23' W 124°03'611.5
2018-Jun-24 02:30N 48°25' W 124°11'612.5
2018-Jun-24 02:00N 48°28' W 124°20'612.2
2018-Jun-24 01:30N 48°30' W 124°28'5 9.6
2018-Jun-24 01:01N 48°32' W 124°35'612.3
2018-Jun-24 00:31N 48°34' W 124°44'612.5
2018-Jun-24 00:00N 48°37' W 124°52'612.6
2018-Jun-23 23:30N 48°40' W 125°00'712.9
2018-Jun-23 22:59N 48°43' W 125°09'612.9
2018-Jun-23 22:30N 48°46' W 125°18'713.3
2018-Jun-23 22:01N 48°49' W 125°26'713.7
2018-Jun-23 21:30N 48°53' W 125°35'713.5
2018-Jun-23 21:00N 48°57' W 125°44'713.4
2018-Jun-23 20:31N 49°00' W 125°52'713.2
2018-Jun-23 20:00N 49°04' W 126°01'  
2018-Jun-21 14:26N 49°49' W 127°46'5 1.6
2018-Jun-21 11:26N 49°46' W 127°40'7 3.1
2018-Jun-21 09:06N 49°52' W 127°45'1 2.4
2018-Jun-21 08:49N 49°52' W 127°44'1 1.4
2018-Jun-21 08:26N 49°52' W 127°44'2 2.8
2018-Jun-21 07:42N 49°50' W 127°43'4 3.1
2018-Jun-21 06:31N 49°47' W 127°40'1 0.7
2018-Jun-21 04:38N 49°47' W 127°42'0 3.2
2018-Jun-21 04:30N 49°47' W 127°42'2 0.3
2018-Jun-20 19:56N 49°45' W 127°42'1 0.4
2018-Jun-20 18:39N 49°44' W 127°42'2 1.1
2018-Jun-20 16:29N 49°47' W 127°41'14 0.7
2018-Jun-19 20:44N 49°38' W 127°24'6 2.2
2018-Jun-19 18:01N 49°42' W 127°32'1 7.5
2018-Jun-19 17:55N 49°42' W 127°33'3 7.4
2018-Jun-19 17:28N 49°40' W 127°28'3 5.9
2018-Jun-19 16:55N 49°38' W 127°25'2 0.5
2018-Jun-19 11:45N 49°39' W 127°28'5 2.8
2018-Jun-19 09:58N 49°42' W 127°34'5 3.0
2018-Jun-19 08:11N 49°46' W 127°40'1 2.6
2018-Jun-19 07:59N 49°45' W 127°40'4 2.2
2018-Jun-19 06:15N 49°43' W 127°35'1 3.0
2018-Jun-19 05:56N 49°42' W 127°34'2 3.0
2018-Jun-19 05:10N 49°41' W 127°32'3 1.2
2018-Jun-19 02:36N 49°42' W 127°37'3 1.8
2018-Jun-19 00:55N 49°41' W 127°32'4 7.0
2018-Jun-19 00:24N 49°43' W 127°36'2 4.5
2018-Jun-19 00:00N 49°44' W 127°38'2 3.2
2018-Jun-18 23:29N 49°46' W 127°39'1 2.9
2018-Jun-18 23:00N 49°47' W 127°40'2 3.2
2018-Jun-18 22:24N 49°49' W 127°41'1 1.0
2018-Jun-18 21:52N 49°49' W 127°42'2 6.1
2018-Jun-18 21:28N 49°47' W 127°41'3 5.7
2018-Jun-18 21:00N 49°45' W 127°38'5 9.4
2018-Jun-18 20:28N 49°44' W 127°31'4 8.6
2018-Jun-18 19:59N 49°41' W 127°26'5 3.3
2018-Jun-18 18:32N 49°36' W 127°25'4 0.6
2018-Jun-18 12:31N 49°40' W 127°25'1 5.9
2018-Jun-18 12:20N 49°39' W 127°24'2 5.1
2018-Jun-18 11:57N 49°37' W 127°23'1 0.5
2018-Jun-18 10:55N 49°37' W 127°24'2 3.0
2018-Jun-18 10:26N 49°39' W 127°24'5 1.0
2018-Jun-18 05:50N 49°34' W 127°22'4 8.4
2018-Jun-18 05:23N 49°33' W 127°16'410.7
2018-Jun-18 05:00N 49°29' W 127°14'510.9
2018-Jun-18 04:31N 49°24' W 127°17'510.5
2018-Jun-18 04:01N 49°20' W 127°12'510.2
2018-Jun-18 03:30N 49°16' W 127°06'5 9.5
2018-Jun-18 03:00N 49°12' W 127°03'1 2.4
2018-Jun-18 02:30N 49°13' W 127°04'1 3.0
2018-Jun-18 02:01N 49°14' W 127°05'1 2.7
2018-Jun-18 01:31N 49°15' W 127°07'1 2.8
2018-Jun-18 01:00N 49°16' W 127°08'2 3.5
2018-Jun-18 00:31N 49°17' W 127°10'4 8.0
2018-Jun-18 00:01N 49°15' W 127°06'510.4
2018-Jun-17 23:31N 49°11' W 127°01'611.5
2018-Jun-17 23:01N 49°06' W 126°55'510.3
2018-Jun-17 22:31N 49°02' W 126°52'5 9.9
2018-Jun-17 22:01N 49°00' W 126°45'5 9.7
2018-Jun-17 21:29N 48°58' W 126°38'4 8.8
2018-Jun-17 21:00N 48°55' W 126°32'0 0.4
2018-Jun-17 20:30N 48°55' W 126°33'1 1.2
2018-Jun-17 20:00N 48°56' W 126°32'1 2.6
2018-Jun-17 19:31N 48°55' W 126°32'1 1.4
2018-Jun-17 19:00N 48°54' W 126°32'1 2.7
2018-Jun-17 18:30N 48°53' W 126°33'4 8.6
2018-Jun-17 18:00N 48°48' W 126°33'4 8.7
2018-Jun-17 17:30N 48°45' W 126°28'510.1
2018-Jun-17 17:00N 48°46' W 126°20'3 6.1
2018-Jun-17 16:30N 48°44' W 126°16'3 5.8
2018-Jun-17 16:01N 48°41' W 126°17'510.7
2018-Jun-17 15:31N 48°36' W 126°13'2 4.6
2018-Jun-17 15:00N 48°34' W 126°12'1 2.4
2018-Jun-17 14:31N 48°33' W 126°11'1 2.9
2018-Jun-17 14:00N 48°32' W 126°11'2 2.8
2018-Jun-17 13:23N 48°30' W 126°11'1 2.7
2018-Jun-17 13:00N 48°29' W 126°11'1 2.8
2018-Jun-17 12:29N 48°28' W 126°10'1 2.7
2018-Jun-17 11:59N 48°26' W 126°08'1 2.9
2018-Jun-17 11:30N 48°25' W 126°07'1 3.0
2018-Jun-17 11:01N 48°24' W 126°06'1 2.6
2018-Jun-17 10:30N 48°25' W 126°07'2 3.3
2018-Jun-17 10:00N 48°27' W 126°08'2 3.0
2018-Jun-17 09:30N 48°28' W 126°09'2 3.2
2018-Jun-17 09:00N 48°29' W 126°10'2 4.2
2018-Jun-17 08:30N 48°32' W 126°10'1 2.7
2018-Jun-17 08:00N 48°30' W 126°11'1 2.3
2018-Jun-17 07:30N 48°29' W 126°11'1 2.9
2018-Jun-17 07:01N 48°28' W 126°10'1 2.5
2018-Jun-17 06:31N 48°29' W 126°11'2 3.8
2018-Jun-17 06:00N 48°31' W 126°11'1 2.0
2018-Jun-17 05:30N 48°30' W 126°11'1 1.5
2018-Jun-17 05:00N 48°29' W 126°11'1 2.8
2018-Jun-17 04:30N 48°28' W 126°10'1 2.9
2018-Jun-17 04:01N 48°27' W 126°09'1 2.8
2018-Jun-17 03:30N 48°25' W 126°09'1 2.8
2018-Jun-17 03:00N 48°24' W 126°08'1 2.7
2018-Jun-17 02:31N 48°23' W 126°06'1 2.9
2018-Jun-17 02:00N 48°22' W 126°05'0 0.3
2018-Jun-17 01:31N 48°22' W 126°05'510.6
2018-Jun-17 01:01N 48°19' W 125°58'611.9
2018-Jun-17 00:30N 48°16' W 125°51'511.0
2018-Jun-17 00:01N 48°15' W 125°42'4 7.0
2018-Jun-16 23:31N 48°14' W 125°47'612.9
2018-Jun-16 23:01N 48°17' W 125°55'611.3
2018-Jun-16 22:30N 48°22' W 125°60'5 9.7
2018-Jun-16 22:00N 48°22' W 126°07'3 5.6
2018-Jun-16 21:30N 48°24' W 126°09'1 1.6
2018-Jun-16 21:00N 48°24' W 126°08'1 2.9
2018-Jun-16 20:30N 48°23' W 126°07'1 2.8
2018-Jun-16 20:00N 48°22' W 126°06'1 2.9
2018-Jun-16 19:30N 48°21' W 126°04'2 3.2
2018-Jun-16 19:00N 48°20' W 126°02'3 6.6
2018-Jun-16 18:30N 48°22' W 126°06'3 6.2
2018-Jun-16 18:00N 48°24' W 126°08'1 1.2
2018-Jun-16 17:30N 48°24' W 126°09'1 2.7
2018-Jun-16 17:00N 48°23' W 126°08'1 2.6
2018-Jun-16 16:30N 48°22' W 126°06'1 2.9
2018-Jun-16 16:00N 48°21' W 126°04'0 0.6
2018-Jun-16 15:30N 48°21' W 126°04'510.4
2018-Jun-16 15:00N 48°25' W 126°09'2 4.6
2018-Jun-16 14:30N 48°27' W 126°08'1 2.3
2018-Jun-16 14:00N 48°26' W 126°09'1 2.3
2018-Jun-16 13:30N 48°25' W 126°08'1 2.7
2018-Jun-16 13:00N 48°24' W 126°07'1 2.8
2018-Jun-16 12:28N 48°23' W 126°06'2 3.5
2018-Jun-16 12:00N 48°22' W 126°04'1 1.9
2018-Jun-16 11:27N 48°23' W 126°05'2 2.2
2018-Jun-16 10:40N 48°25' W 126°06'1 2.5
2018-Jun-16 10:27N 48°24' W 126°06'4 6.7
2018-Jun-16 09:50N 48°21' W 126°03'1 1.9
2018-Jun-16 09:28N 48°20' W 126°02'1 2.8
2018-Jun-16 08:59N 48°19' W 126°00'3 2.6
2018-Jun-16 07:58N 48°19' W 125°56'2 3.0
2018-Jun-16 07:24N 48°20' W 125°54'9 1.8
2018-Jun-16 02:27N 48°15' W 125°43'0 0.9
2018-Jun-16 02:00N 48°15' W 125°42'1 2.0
2018-Jun-16 01:25N 48°15' W 125°41'0 0.5
2018-Jun-16 00:53N 48°15' W 125°41'4 9.9
2018-Jun-16 00:26N 48°18' W 125°36'511.2
2018-Jun-16 00:00N 48°20' W 125°30'711.9
2018-Jun-15 23:27N 48°25' W 125°23'4 9.4
2018-Jun-15 23:00N 48°25' W 125°16'611.5
2018-Jun-15 22:28N 48°27' W 125°08'611.5
2018-Jun-15 21:56N 48°30' W 124°60'511.8
2018-Jun-15 21:30N 48°31' W 124°52'612.2
2018-Jun-15 21:00N 48°30' W 124°43'612.1
2018-Jun-15 20:30N 48°29' W 124°34'612.1
2018-Jun-15 20:00N 48°27' W 124°26'613.1
2018-Jun-15 19:31N 48°25' W 124°16'714.0
2018-Jun-15 19:00N 48°23' W 124°06'3013.3
2018-Jun-15 16:45N 48°22' W 123°21'414.2
2018-Jun-15 16:30N 48°23' W 123°16'714.0
2018-Jun-15 16:00N 48°30' W 123°13'816.4
2018-Jun-15 15:30N 48°38' W 123°15'714.9
2018-Jun-15 15:00N 48°45' W 123°19'811.9
2018-Jun-15 14:22N 48°53' W 123°18'513.5
2018-Jun-15 14:00N 48°58' W 123°19'612.7
2018-Jun-15 13:30N 49°04' W 123°21'613.0
2018-Jun-15 13:00N 49°10' W 123°22'613.1
2018-Jun-15 12:30N 49°17' W 123°20'611.9
2018-Jun-15 12:00N 49°19' W 123°12'  

Dump ship's entire track history